sensor_id;sensor_type;location;lat;lon;timestamp;pressure;altitude;pressure_sealevel;temperature;humidity
9855;BME280;4966;48.112;9.282;2023-09-19T00:01:45;94503.59;;;17.22;87.30
9855;BME280;4966;48.112;9.282;2023-09-19T00:04:13;94498.81;;;17.12;86.67
9855;BME280;4966;48.112;9.282;2023-09-19T00:06:39;94503.13;;;17.13;86.49
9855;BME280;4966;48.112;9.282;2023-09-19T00:09:05;94489.38;;;17.10;86.71
9855;BME280;4966;48.112;9.282;2023-09-19T00:11:35;94488.53;;;17.02;87.01
9855;BME280;4966;48.112;9.282;2023-09-19T00:14:00;94491.69;;;17.04;87.07
9855;BME280;4966;48.112;9.282;2023-09-19T00:16:26;94483.88;;;17.10;86.58
9855;BME280;4966;48.112;9.282;2023-09-19T00:18:52;94485.78;;;17.02;86.77
9855;BME280;4966;48.112;9.282;2023-09-19T00:21:17;94492.44;;;16.97;86.98
9855;BME280;4966;48.112;9.282;2023-09-19T00:23:45;94502.59;;;16.90;87.84
9855;BME280;4966;48.112;9.282;2023-09-19T00:26:11;94498.31;;;16.96;87.99
9855;BME280;4966;48.112;9.282;2023-09-19T00:28:36;94495.59;;;16.96;88.88
9855;BME280;4966;48.112;9.282;2023-09-19T00:31:01;94496.03;;;17.09;88.64
9855;BME280;4966;48.112;9.282;2023-09-19T00:33:27;94492.19;;;17.20;87.76
9855;BME280;4966;48.112;9.282;2023-09-19T00:35:56;94500.84;;;17.22;87.83
9855;BME280;4966;48.112;9.282;2023-09-19T00:38:21;94494.88;;;17.13;88.33
9855;BME280;4966;48.112;9.282;2023-09-19T00:40:50;94502.41;;;17.23;87.50
9855;BME280;4966;48.112;9.282;2023-09-19T00:43:19;94505.56;;;17.22;87.30
9855;BME280;4966;48.112;9.282;2023-09-19T00:45:47;94505.56;;;17.26;87.28
9855;BME280;4966;48.112;9.282;2023-09-19T00:48:14;94490.25;;;17.28;86.58
9855;BME280;4966;48.112;9.282;2023-09-19T00:50:41;94499.16;;;17.00;87.48
9855;BME280;4966;48.112;9.282;2023-09-19T00:53:09;94504.78;;;17.21;87.14
9855;BME280;4966;48.112;9.282;2023-09-19T00:55:39;94504.69;;;17.07;87.98
9855;BME280;4966;48.112;9.282;2023-09-19T00:58:05;94500.78;;;17.15;87.64
9855;BME280;4966;48.112;9.282;2023-09-19T01:00:33;94496.47;;;17.14;87.60
9855;BME280;4966;48.112;9.282;2023-09-19T01:03:00;94509.91;;;17.27;86.90
9855;BME280;4966;48.112;9.282;2023-09-19T01:05:27;94514.50;;;17.08;87.89
9855;BME280;4966;48.112;9.282;2023-09-19T01:07:53;94519.25;;;17.18;87.59
9855;BME280;4966;48.112;9.282;2023-09-19T01:10:20;94516.94;;;17.24;87.25
9855;BME280;4966;48.112;9.282;2023-09-19T01:18:29;94519.09;;;16.90;89.53
9855;BME280;4966;48.112;9.282;2023-09-19T01:21:12;94525.63;;;17.33;86.92
9855;BME280;4966;48.112;9.282;2023-09-19T01:23:52;94531.03;;;17.19;87.81
9855;BME280;4966;48.112;9.282;2023-09-19T01:29:39;94538.88;;;17.13;87.92
9855;BME280;4966;48.112;9.282;2023-09-19T01:32:06;94529.13;;;17.27;86.49
9855;BME280;4966;48.112;9.282;2023-09-19T01:34:56;94532.59;;;17.16;86.51
9855;BME280;4966;48.112;9.282;2023-09-19T01:37:24;94536.50;;;17.12;87.32
9855;BME280;4966;48.112;9.282;2023-09-19T01:40:00;94528.19;;;17.01;89.08
9855;BME280;4966;48.112;9.282;2023-09-19T01:42:36;94543.84;;;16.97;89.60
9855;BME280;4966;48.112;9.282;2023-09-19T01:45:33;94537.84;;;16.80;90.92
9855;BME280;4966;48.112;9.282;2023-09-19T01:48:08;94538.09;;;16.65;92.27
9855;BME280;4966;48.112;9.282;2023-09-19T01:50:42;94547.84;;;17.03;90.32
9855;BME280;4966;48.112;9.282;2023-09-19T01:53:33;94546.19;;;16.95;89.91
9855;BME280;4966;48.112;9.282;2023-09-19T01:56:01;94548.75;;;17.21;88.54
9855;BME280;4966;48.112;9.282;2023-09-19T01:58:35;94538.53;;;17.26;87.87
9855;BME280;4966;48.112;9.282;2023-09-19T02:01:04;94531.88;;;17.27;88.03
9855;BME280;4966;48.112;9.282;2023-09-19T02:03:31;94534.38;;;16.87;91.32
9855;BME280;4966;48.112;9.282;2023-09-19T02:05:58;94531.75;;;17.05;90.13
9855;BME280;4966;48.112;9.282;2023-09-19T02:08:23;94538.13;;;17.23;88.95
9855;BME280;4966;48.112;9.282;2023-09-19T02:10:51;94539.50;;;16.89;90.61
9855;BME280;4966;48.112;9.282;2023-09-19T02:13:19;94538.94;;;17.24;88.58
9855;BME280;4966;48.112;9.282;2023-09-19T02:15:45;94541.28;;;17.26;88.43
9855;BME280;4966;48.112;9.282;2023-09-19T02:18:11;94556.34;;;16.87;91.12
9855;BME280;4966;48.112;9.282;2023-09-19T02:20:37;94556.28;;;16.80;90.88
9855;BME280;4966;48.112;9.282;2023-09-19T02:23:03;94559.34;;;16.71;91.77
9855;BME280;4966;48.112;9.282;2023-09-19T02:25:28;94554.44;;;16.91;90.58
9855;BME280;4966;48.112;9.282;2023-09-19T02:27:54;94560.03;;;16.61;92.86
9855;BME280;4966;48.112;9.282;2023-09-19T02:30:19;94555.75;;;16.64;92.37
9855;BME280;4966;48.112;9.282;2023-09-19T02:32:48;94563.38;;;16.81;91.13
9855;BME280;4966;48.112;9.282;2023-09-19T02:35:14;94566.91;;;16.82;90.28
9855;BME280;4966;48.112;9.282;2023-09-19T02:37:40;94568.06;;;16.80;90.25
9855;BME280;4966;48.112;9.282;2023-09-19T02:40:05;94566.84;;;16.78;90.59
9855;BME280;4966;48.112;9.282;2023-09-19T02:42:44;94572.56;;;16.55;92.66
9855;BME280;4966;48.112;9.282;2023-09-19T02:45:12;94580.09;;;16.65;92.26
9855;BME280;4966;48.112;9.282;2023-09-19T02:47:37;94574.91;;;17.05;90.00
9855;BME280;4966;48.112;9.282;2023-09-19T02:50:05;94571.00;;;16.57;92.89
9855;BME280;4966;48.112;9.282;2023-09-19T02:52:30;94575.72;;;17.05;90.14
9855;BME280;4966;48.112;9.282;2023-09-19T02:54:56;94577.63;;;16.97;90.56
9855;BME280;4966;48.112;9.282;2023-09-19T02:57:21;94567.50;;;17.09;90.29
9855;BME280;4966;48.112;9.282;2023-09-19T02:59:49;94575.16;;;16.85;91.42
9855;BME280;4966;48.112;9.282;2023-09-19T03:02:14;94576.56;;;16.65;93.27
9855;BME280;4966;48.112;9.282;2023-09-19T03:04:40;94576.50;;;17.06;90.34
9855;BME280;4966;48.112;9.282;2023-09-19T03:07:06;94575.41;;;17.17;89.62
9855;BME280;4966;48.112;9.282;2023-09-19T03:09:31;94578.72;;;16.86;91.45
9855;BME280;4966;48.112;9.282;2023-09-19T03:11:56;94575.78;;;17.16;89.44
9855;BME280;4966;48.112;9.282;2023-09-19T03:14:22;94586.00;;;17.19;88.86
9855;BME280;4966;48.112;9.282;2023-09-19T03:16:49;94581.41;;;17.34;87.81
9855;BME280;4966;48.112;9.282;2023-09-19T03:19:14;94575.47;;;17.28;88.21
9855;BME280;4966;48.112;9.282;2023-09-19T03:21:40;94573.50;;;17.21;88.82
9855;BME280;4966;48.112;9.282;2023-09-19T03:24:06;94578.84;;;17.04;89.28
9855;BME280;4966;48.112;9.282;2023-09-19T03:26:31;94569.50;;;17.15;88.65
9855;BME280;4966;48.112;9.282;2023-09-19T03:28:58;94577.91;;;16.82;90.95
9855;BME280;4966;48.112;9.282;2023-09-19T03:31:23;94588.75;;;17.19;87.95
9855;BME280;4966;48.112;9.282;2023-09-19T03:33:49;94582.84;;;17.10;88.02
9855;BME280;4966;48.112;9.282;2023-09-19T03:36:14;94588.38;;;17.20;87.83
9855;BME280;4966;48.112;9.282;2023-09-19T03:38:40;94581.78;;;17.29;87.37
9855;BME280;4966;48.112;9.282;2023-09-19T03:41:05;94587.56;;;17.16;88.27
9855;BME280;4966;48.112;9.282;2023-09-19T03:43:32;94583.66;;;17.17;87.70
9855;BME280;4966;48.112;9.282;2023-09-19T03:46:01;94586.63;;;16.91;88.84
9855;BME280;4966;48.112;9.282;2023-09-19T03:48:27;94570.78;;;17.32;86.36
9855;BME280;4966;48.112;9.282;2023-09-19T03:50:53;94582.31;;;16.97;89.13
9855;BME280;4966;48.112;9.282;2023-09-19T03:53:19;94582.47;;;17.15;87.11
9855;BME280;4966;48.112;9.282;2023-09-19T03:55:45;94581.66;;;17.11;87.21
9855;BME280;4966;48.112;9.282;2023-09-19T03:58:11;94586.53;;;17.39;85.79
9855;BME280;4966;48.112;9.282;2023-09-19T04:00:36;94592.06;;;16.84;88.86
9855;BME280;4966;48.112;9.282;2023-09-19T04:03:02;94597.00;;;17.15;87.08
9855;BME280;4966;48.112;9.282;2023-09-19T04:05:31;94577.75;;;17.19;86.75
9855;BME280;4966;48.112;9.282;2023-09-19T04:07:56;94583.50;;;16.96;87.80
9855;BME280;4966;48.112;9.282;2023-09-19T04:10:21;94593.72;;;16.95;87.71
9855;BME280;4966;48.112;9.282;2023-09-19T04:12:51;94582.78;;;17.03;87.14
9855;BME280;4966;48.112;9.282;2023-09-19T04:15:18;94578.84;;;16.59;89.28
9855;BME280;4966;48.112;9.282;2023-09-19T04:17:43;94583.69;;;16.73;88.48
9855;BME280;4966;48.112;9.282;2023-09-19T04:20:09;94586.81;;;16.71;87.68
9855;BME280;4966;48.112;9.282;2023-09-19T04:22:37;94586.16;;;16.82;87.40
9855;BME280;4966;48.112;9.282;2023-09-19T04:25:03;94588.81;;;16.74;87.01
9855;BME280;4966;48.112;9.282;2023-09-19T04:27:29;94593.53;;;16.77;87.57
9855;BME280;4966;48.112;9.282;2023-09-19T04:29:54;94589.06;;;17.07;85.82
9855;BME280;4966;48.112;9.282;2023-09-19T04:32:24;94595.28;;;16.93;86.07
9855;BME280;4966;48.112;9.282;2023-09-19T04:34:49;94603.63;;;17.11;85.45
9855;BME280;4966;48.112;9.282;2023-09-19T04:37:15;94593.72;;;16.95;86.63
9855;BME280;4966;48.112;9.282;2023-09-19T04:39:40;94601.16;;;16.95;86.39
9855;BME280;4966;48.112;9.282;2023-09-19T04:42:05;94607.81;;;16.94;86.86
9855;BME280;4966;48.112;9.282;2023-09-19T04:44:31;94606.47;;;16.77;88.40
9855;BME280;4966;48.112;9.282;2023-09-19T04:46:56;94606.94;;;16.79;88.92
9855;BME280;4966;48.112;9.282;2023-09-19T04:49:22;94605.22;;;16.67;90.01
9855;BME280;4966;48.112;9.282;2023-09-19T04:51:47;94603.56;;;16.59;90.74
9855;BME280;4966;48.112;9.282;2023-09-19T04:54:12;94607.50;;;16.62;90.81
9855;BME280;4966;48.112;9.282;2023-09-19T04:56:38;94608.25;;;16.17;92.93
9855;BME280;4966;48.112;9.282;2023-09-19T04:59:05;94620.78;;;16.56;91.13
9855;BME280;4966;48.112;9.282;2023-09-19T05:01:30;94618.44;;;16.54;90.64
9855;BME280;4966;48.112;9.282;2023-09-19T05:03:56;94613.06;;;16.69;89.63
9855;BME280;4966;48.112;9.282;2023-09-19T05:06:22;94618.13;;;16.63;88.93
9855;BME280;4966;48.112;9.282;2023-09-19T05:08:51;94619.91;;;16.45;90.34
9855;BME280;4966;48.112;9.282;2023-09-19T05:11:20;94625.72;;;16.40;90.00
9855;BME280;4966;48.112;9.282;2023-09-19T05:13:47;94633.31;;;16.50;89.65
9855;BME280;4966;48.112;9.282;2023-09-19T05:16:12;94641.19;;;16.55;88.99
9855;BME280;4966;48.112;9.282;2023-09-19T05:18:37;94624.03;;;16.65;88.51
9855;BME280;4966;48.112;9.282;2023-09-19T05:21:03;94619.94;;;16.48;89.03
9855;BME280;4966;48.112;9.282;2023-09-19T05:23:28;94632.41;;;16.42;89.08
9855;BME280;4966;48.112;9.282;2023-09-19T05:25:53;94638.31;;;16.44;89.12
9855;BME280;4966;48.112;9.282;2023-09-19T05:28:19;94640.13;;;16.29;90.92
9855;BME280;4966;48.112;9.282;2023-09-19T05:30:45;94642.19;;;16.36;90.86
9855;BME280;4966;48.112;9.282;2023-09-19T05:33:11;94637.59;;;16.47;89.81
9855;BME280;4966;48.112;9.282;2023-09-19T05:35:37;94638.31;;;16.44;89.32
9855;BME280;4966;48.112;9.282;2023-09-19T05:38:05;94643.19;;;16.62;88.77
9855;BME280;4966;48.112;9.282;2023-09-19T05:40:34;94639.66;;;16.57;88.46
9855;BME280;4966;48.112;9.282;2023-09-19T05:43:00;94636.56;;;16.63;88.29
9855;BME280;4966;48.112;9.282;2023-09-19T05:45:25;94631.44;;;16.61;88.51
9855;BME280;4966;48.112;9.282;2023-09-19T05:47:52;94641.63;;;16.61;88.97
9855;BME280;4966;48.112;9.282;2023-09-19T05:50:21;94645.72;;;16.77;88.19
9855;BME280;4966;48.112;9.282;2023-09-19T05:52:54;94659.91;;;16.79;89.46
9855;BME280;4966;48.112;9.282;2023-09-19T05:55:27;94659.72;;;17.03;89.55
9855;BME280;4966;48.112;9.282;2023-09-19T05:57:54;94657.09;;;17.17;89.54
9855;BME280;4966;48.112;9.282;2023-09-19T06:00:23;94664.22;;;17.25;87.76
9855;BME280;4966;48.112;9.282;2023-09-19T06:02:55;94663.78;;;17.19;88.34
9855;BME280;4966;48.112;9.282;2023-09-19T06:05:22;94661.44;;;17.21;87.90
9855;BME280;4966;48.112;9.282;2023-09-19T06:07:48;94669.03;;;17.39;88.06
9855;BME280;4966;48.112;9.282;2023-09-19T06:10:13;94671.63;;;17.21;87.77
9855;BME280;4966;48.112;9.282;2023-09-19T06:12:40;94675.22;;;17.25;88.10
9855;BME280;4966;48.112;9.282;2023-09-19T06:15:10;94681.66;;;17.47;86.94
9855;BME280;4966;48.112;9.282;2023-09-19T06:17:41;94682.81;;;17.42;87.35
9855;BME280;4966;48.112;9.282;2023-09-19T06:20:07;94685.00;;;17.22;87.62
9855;BME280;4966;48.112;9.282;2023-09-19T06:22:43;94683.38;;;17.14;88.13
9855;BME280;4966;48.112;9.282;2023-09-19T06:25:13;94684.31;;;16.88;89.40
9855;BME280;4966;48.112;9.282;2023-09-19T06:27:45;94685.78;;;17.23;87.81
9855;BME280;4966;48.112;9.282;2023-09-19T06:30:11;94684.66;;;17.28;87.31
9855;BME280;4966;48.112;9.282;2023-09-19T06:32:42;94689.22;;;17.09;87.80
9855;BME280;4966;48.112;9.282;2023-09-19T06:35:14;94700.31;;;17.23;87.63
9855;BME280;4966;48.112;9.282;2023-09-19T06:37:41;94694.75;;;17.16;87.74
9855;BME280;4966;48.112;9.282;2023-09-19T06:42:34;94700.53;;;17.52;86.24
9855;BME280;4966;48.112;9.282;2023-09-19T06:45:02;94699.31;;;17.42;87.52
9855;BME280;4966;48.112;9.282;2023-09-19T06:47:28;94695.88;;;17.56;87.58
9855;BME280;4966;48.112;9.282;2023-09-19T06:49:53;94701.09;;;17.72;86.52
9855;BME280;4966;48.112;9.282;2023-09-19T06:52:19;94709.03;;;17.81;85.92
9855;BME280;4966;48.112;9.282;2023-09-19T06:54:47;94703.66;;;18.02;85.48
9855;BME280;4966;48.112;9.282;2023-09-19T06:57:15;94708.66;;;17.86;85.14
9855;BME280;4966;48.112;9.282;2023-09-19T06:59:40;94709.88;;;17.40;89.17
9855;BME280;4966;48.112;9.282;2023-09-19T07:02:06;94716.47;;;17.77;87.63
9855;BME280;4966;48.112;9.282;2023-09-19T07:04:31;94710.53;;;17.75;87.18
9855;BME280;4966;48.112;9.282;2023-09-19T07:06:57;94709.66;;;17.60;87.48
9855;BME280;4966;48.112;9.282;2023-09-19T07:09:23;94716.78;;;17.72;87.27
9855;BME280;4966;48.112;9.282;2023-09-19T07:11:49;94726.72;;;17.83;87.71
9855;BME280;4966;48.112;9.282;2023-09-19T07:14:16;94717.78;;;17.97;86.69
9855;BME280;4966;48.112;9.282;2023-09-19T07:16:41;94724.75;;;17.80;85.81
9855;BME280;4966;48.112;9.282;2023-09-19T07:19:09;94718.34;;;17.69;86.07
9855;BME280;4966;48.112;9.282;2023-09-19T07:21:35;94720.88;;;17.89;85.18
9855;BME280;4966;48.112;9.282;2023-09-19T07:24:01;94720.53;;;17.94;85.73
9855;BME280;4966;48.112;9.282;2023-09-19T07:26:28;94718.00;;;18.37;83.85
9855;BME280;4966;48.112;9.282;2023-09-19T07:28:53;94719.69;;;18.74;81.45
9855;BME280;4966;48.112;9.282;2023-09-19T07:31:19;94720.78;;;18.44;82.04
9855;BME280;4966;48.112;9.282;2023-09-19T07:33:44;94724.84;;;18.79;79.82
9855;BME280;4966;48.112;9.282;2023-09-19T07:36:10;94733.03;;;18.61;81.60
9855;BME280;4966;48.112;9.282;2023-09-19T07:38:39;94734.16;;;18.53;81.36
9855;BME280;4966;48.112;9.282;2023-09-19T07:41:04;94732.50;;;18.34;82.10
9855;BME280;4966;48.112;9.282;2023-09-19T07:43:30;94735.78;;;18.61;80.32
9855;BME280;4966;48.112;9.282;2023-09-19T07:45:56;94732.28;;;18.71;78.89
9855;BME280;4966;48.112;9.282;2023-09-19T07:48:21;94741.31;;;18.64;79.86
9855;BME280;4966;48.112;9.282;2023-09-19T07:50:48;94744.06;;;18.64;78.69
9855;BME280;4966;48.112;9.282;2023-09-19T07:53:13;94743.41;;;18.92;80.27
9855;BME280;4966;48.112;9.282;2023-09-19T07:55:40;94748.88;;;18.78;78.68
9855;BME280;4966;48.112;9.282;2023-09-19T07:58:06;94750.94;;;19.39;76.80
9855;BME280;4966;48.112;9.282;2023-09-19T08:00:32;94746.47;;;18.77;78.61
9855;BME280;4966;48.112;9.282;2023-09-19T08:03:00;94746.56;;;18.95;77.18
9855;BME280;4966;48.112;9.282;2023-09-19T08:05:25;94753.31;;;19.40;75.76
9855;BME280;4966;48.112;9.282;2023-09-19T08:07:51;94752.88;;;19.02;78.11
9855;BME280;4966;48.112;9.282;2023-09-19T08:10:17;94751.94;;;18.69;77.00
9855;BME280;4966;48.112;9.282;2023-09-19T08:12:45;94751.31;;;19.19;76.58
9855;BME280;4966;48.112;9.282;2023-09-19T08:15:17;94760.44;;;19.52;75.16
9855;BME280;4966;48.112;9.282;2023-09-19T08:17:44;94759.63;;;19.62;74.17
9855;BME280;4966;48.112;9.282;2023-09-19T08:20:10;94765.56;;;20.00;72.64
9855;BME280;4966;48.112;9.282;2023-09-19T08:22:43;94765.97;;;20.02;71.21
9855;BME280;4966;48.112;9.282;2023-09-19T08:25:11;94765.97;;;19.73;72.46
9855;BME280;4966;48.112;9.282;2023-09-19T08:27:36;94768.31;;;19.64;73.47
9855;BME280;4966;48.112;9.282;2023-09-19T08:30:02;94767.06;;;20.40;70.67
9855;BME280;4966;48.112;9.282;2023-09-19T08:32:28;94764.00;;;19.74;68.67
9855;BME280;4966;48.112;9.282;2023-09-19T08:34:54;94773.84;;;20.00;69.64
9855;BME280;4966;48.112;9.282;2023-09-19T08:37:19;94776.63;;;19.86;70.77
9855;BME280;4966;48.112;9.282;2023-09-19T08:39:44;94778.13;;;20.23;68.88
9855;BME280;4966;48.112;9.282;2023-09-19T08:42:10;94777.00;;;20.09;69.38
9855;BME280;4966;48.112;9.282;2023-09-19T08:44:37;94775.41;;;20.01;65.69
9855;BME280;4966;48.112;9.282;2023-09-19T08:47:14;94774.63;;;20.18;66.58
9855;BME280;4966;48.112;9.282;2023-09-19T08:52:31;94784.38;;;20.63;63.90
9855;BME280;4966;48.112;9.282;2023-09-19T08:55:01;94784.03;;;20.39;62.56
9855;BME280;4966;48.112;9.282;2023-09-19T08:57:33;94779.69;;;20.34;63.45
9855;BME280;4966;48.112;9.282;2023-09-19T09:00:01;94776.94;;;20.34;61.91
9855;BME280;4966;48.112;9.282;2023-09-19T09:02:27;94774.50;;;20.69;61.79
9855;BME280;4966;48.112;9.282;2023-09-19T09:04:53;94776.47;;;20.72;61.03
9855;BME280;4966;48.112;9.282;2023-09-19T09:07:20;94774.31;;;21.08;59.01
9855;BME280;4966;48.112;9.282;2023-09-19T09:09:46;94778.25;;;21.14;59.45
9855;BME280;4966;48.112;9.282;2023-09-19T09:12:12;94785.38;;;21.04;59.96
9855;BME280;4966;48.112;9.282;2023-09-19T09:14:45;94768.97;;;21.46;60.14
9855;BME280;4966;48.112;9.282;2023-09-19T09:17:11;94773.81;;;21.87;59.16
9855;BME280;4966;48.112;9.282;2023-09-19T09:19:37;94778.59;;;21.20;59.61
9855;BME280;4966;48.112;9.282;2023-09-19T09:22:09;94784.19;;;21.09;58.58
9855;BME280;4966;48.112;9.282;2023-09-19T09:24:36;94776.19;;;21.29;57.42
9855;BME280;4966;48.112;9.282;2023-09-19T09:27:04;94775.66;;;20.78;56.26
9855;BME280;4966;48.112;9.282;2023-09-19T09:29:47;94785.59;;;20.58;56.58
9855;BME280;4966;48.112;9.282;2023-09-19T09:32:30;94780.50;;;20.31;55.11
9855;BME280;4966;48.112;9.282;2023-09-19T09:35:07;94788.75;;;20.60;54.70
9855;BME280;4966;48.112;9.282;2023-09-19T09:37:35;94784.41;;;20.41;55.86
9855;BME280;4966;48.112;9.282;2023-09-19T09:40:04;94773.88;;;21.13;54.41
9855;BME280;4966;48.112;9.282;2023-09-19T09:42:45;94778.56;;;21.27;53.52
9855;BME280;4966;48.112;9.282;2023-09-19T09:45:22;94785.06;;;20.95;54.12
9855;BME280;4966;48.112;9.282;2023-09-19T09:48:00;94776.31;;;21.04;52.22
9855;BME280;4966;48.112;9.282;2023-09-19T09:50:36;94772.72;;;21.11;52.62
9855;BME280;4966;48.112;9.282;2023-09-19T09:53:28;94776.19;;;21.85;51.21
9855;BME280;4966;48.112;9.282;2023-09-19T09:56:09;94771.03;;;21.87;51.12
9855;BME280;4966;48.112;9.282;2023-09-19T10:01:05;94769.56;;;21.75;50.55
9855;BME280;4966;48.112;9.282;2023-09-19T10:03:38;94767.69;;;22.10;49.97
9855;BME280;4966;48.112;9.282;2023-09-19T10:06:15;94771.94;;;21.73;49.73
9855;BME280;4966;48.112;9.282;2023-09-19T10:09:03;94768.91;;;20.79;51.59
9855;BME280;4966;48.112;9.282;2023-09-19T10:11:43;94773.06;;;20.07;52.72
9855;BME280;4966;48.112;9.282;2023-09-19T10:14:10;94776.50;;;20.57;51.00
9855;BME280;4966;48.112;9.282;2023-09-19T10:16:40;94780.44;;;20.49;53.13
9855;BME280;4966;48.112;9.282;2023-09-19T10:19:09;94767.81;;;20.48;52.33
9855;BME280;4966;48.112;9.282;2023-09-19T10:21:36;94768.25;;;20.43;51.33
9855;BME280;4966;48.112;9.282;2023-09-19T10:24:03;94773.44;;;20.12;53.20
9855;BME280;4966;48.112;9.282;2023-09-19T10:26:30;94765.44;;;20.50;51.81
9855;BME280;4966;48.112;9.282;2023-09-19T10:28:57;94767.03;;;20.58;51.59
9855;BME280;4966;48.112;9.282;2023-09-19T10:31:25;94773.66;;;20.79;51.53
9855;BME280;4966;48.112;9.282;2023-09-19T10:33:53;94761.72;;;21.00;49.99
9855;BME280;4966;48.112;9.282;2023-09-19T10:36:23;94774.34;;;21.01;50.21
9855;BME280;4966;48.112;9.282;2023-09-19T10:38:51;94766.34;;;21.21;50.29
9855;BME280;4966;48.112;9.282;2023-09-19T10:41:22;94769.94;;;21.14;50.06
9855;BME280;4966;48.112;9.282;2023-09-19T10:43:48;94762.66;;;21.45;49.00
9855;BME280;4966;48.112;9.282;2023-09-19T10:46:14;94760.28;;;21.96;50.59
9855;BME280;4966;48.112;9.282;2023-09-19T10:48:40;94771.00;;;21.38;49.10
9855;BME280;4966;48.112;9.282;2023-09-19T10:51:11;94785.78;;;21.07;50.07
9855;BME280;4966;48.112;9.282;2023-09-19T10:53:51;94766.28;;;21.87;49.06
9855;BME280;4966;48.112;9.282;2023-09-19T10:56:29;94765.44;;;21.91;47.44
9855;BME280;4966;48.112;9.282;2023-09-19T10:59:07;94766.66;;;21.90;49.26
9855;BME280;4966;48.112;9.282;2023-09-19T11:01:45;94766.63;;;22.38;49.45
9855;BME280;4966;48.112;9.282;2023-09-19T11:04:37;94774.59;;;22.33;47.92
9855;BME280;4966;48.112;9.282;2023-09-19T11:07:13;94764.44;;;22.57;46.94
9855;BME280;4966;48.112;9.282;2023-09-19T11:09:55;94766.06;;;23.46;45.37
9855;BME280;4966;48.112;9.282;2023-09-19T11:15:01;94768.78;;;22.58;45.75
9855;BME280;4966;48.112;9.282;2023-09-19T11:17:39;94762.34;;;21.88;46.67
9855;BME280;4966;48.112;9.282;2023-09-19T11:30:44;94757.94;;;23.32;43.57
9855;BME280;4966;48.112;9.282;2023-09-19T11:33:16;94760.25;;;25.18;40.48
9855;BME280;4966;48.112;9.282;2023-09-19T11:36:08;94758.06;;;25.10;40.09
9855;BME280;4966;48.112;9.282;2023-09-19T11:43:48;94743.44;;;24.22;41.66
9855;BME280;4966;48.112;9.282;2023-09-19T11:46:16;94750.66;;;25.39;40.92
9855;BME280;4966;48.112;9.282;2023-09-19T11:48:47;94741.53;;;27.38;36.05
9855;BME280;4966;48.112;9.282;2023-09-19T11:51:19;94736.72;;;27.64;35.06
9855;BME280;4966;48.112;9.282;2023-09-19T11:53:46;94737.59;;;27.99;34.51
9855;BME280;4966;48.112;9.282;2023-09-19T11:56:16;94746.88;;;26.90;34.66
9855;BME280;4966;48.112;9.282;2023-09-19T11:58:44;94738.94;;;26.88;36.65
9855;BME280;4966;48.112;9.282;2023-09-19T12:01:13;94740.94;;;26.75;36.52
9855;BME280;4966;48.112;9.282;2023-09-19T12:03:46;94730.94;;;28.66;33.51
9855;BME280;4966;48.112;9.282;2023-09-19T12:06:14;94740.16;;;29.73;32.41
9855;BME280;4966;48.112;9.282;2023-09-19T12:08:41;94729.22;;;29.35;31.19
9855;BME280;4966;48.112;9.282;2023-09-19T12:11:12;94722.56;;;30.68;28.78
9855;BME280;4966;48.112;9.282;2023-09-19T12:13:42;94727.59;;;28.24;33.84
9855;BME280;4966;48.112;9.282;2023-09-19T12:16:18;94724.34;;;27.10;36.46
9855;BME280;4966;48.112;9.282;2023-09-19T12:18:47;94725.88;;;26.85;37.72
9855;BME280;4966;48.112;9.282;2023-09-19T12:21:29;94722.47;;;26.65;36.17
9855;BME280;4966;48.112;9.282;2023-09-19T12:27:00;94718.31;;;26.99;35.69
9855;BME280;4966;48.112;9.282;2023-09-19T12:29:26;94718.00;;;28.12;34.87
9855;BME280;4966;48.112;9.282;2023-09-19T12:31:59;94725.19;;;27.23;36.91
9855;BME280;4966;48.112;9.282;2023-09-19T12:34:32;94716.72;;;27.40;36.73
9855;BME280;4966;48.112;9.282;2023-09-19T12:37:14;94711.69;;;26.80;35.64
9855;BME280;4966;48.112;9.282;2023-09-19T12:39:53;94713.28;;;25.89;37.85
9855;BME280;4966;48.112;9.282;2023-09-19T12:42:22;94721.31;;;24.98;40.77
9855;BME280;4966;48.112;9.282;2023-09-19T12:44:49;94716.09;;;24.80;39.79
9855;BME280;4966;48.112;9.282;2023-09-19T12:47:23;94714.38;;;25.27;40.55
9855;BME280;4966;48.112;9.282;2023-09-19T12:52:48;94711.28;;;25.90;37.96
9855;BME280;4966;48.112;9.282;2023-09-19T12:55:30;94707.38;;;26.33;38.08
9855;BME280;4966;48.112;9.282;2023-09-19T13:00:38;94710.16;;;28.19;34.57
9855;BME280;4966;48.112;9.282;2023-09-19T13:03:25;94707.84;;;28.05;35.26
9855;BME280;4966;48.112;9.282;2023-09-19T13:05:55;94706.00;;;27.25;33.34
9855;BME280;4966;48.112;9.282;2023-09-19T13:11:06;94696.66;;;27.79;34.03
9855;BME280;4966;48.112;9.282;2023-09-19T13:13:33;94688.59;;;29.08;30.25
9855;BME280;4966;48.112;9.282;2023-09-19T13:15:58;94686.78;;;27.27;32.74
9855;BME280;4966;48.112;9.282;2023-09-19T13:18:24;94687.50;;;26.31;35.27
9855;BME280;4966;48.112;9.282;2023-09-19T13:21:07;94688.53;;;25.42;36.22
9855;BME280;4966;48.112;9.282;2023-09-19T13:23:38;94687.69;;;26.24;35.50
9855;BME280;4966;48.112;9.282;2023-09-19T13:26:03;94672.56;;;27.60;32.72
9855;BME280;4966;48.112;9.282;2023-09-19T13:28:31;94678.41;;;26.43;34.48
9855;BME280;4966;48.112;9.282;2023-09-19T13:30:56;94673.47;;;26.05;35.90
9855;BME280;4966;48.112;9.282;2023-09-19T13:33:22;94668.44;;;26.29;37.18
9855;BME280;4966;48.112;9.282;2023-09-19T13:35:47;94679.25;;;26.57;36.14
9855;BME280;4966;48.112;9.282;2023-09-19T13:38:14;94672.97;;;25.09;37.59
9855;BME280;4966;48.112;9.282;2023-09-19T13:40:40;94679.75;;;24.31;39.51
9855;BME280;4966;48.112;9.282;2023-09-19T13:43:07;94671.50;;;24.48;38.76
9855;BME280;4966;48.112;9.282;2023-09-19T13:45:33;94669.81;;;24.10;39.22
9855;BME280;4966;48.112;9.282;2023-09-19T13:47:59;94665.69;;;24.18;39.71
9855;BME280;4966;48.112;9.282;2023-09-19T13:50:24;94659.09;;;25.25;38.51
9855;BME280;4966;48.112;9.282;2023-09-19T13:52:53;94655.41;;;26.39;36.23
9855;BME280;4966;48.112;9.282;2023-09-19T13:55:19;94655.66;;;28.24;33.47
9855;BME280;4966;48.112;9.282;2023-09-19T13:57:48;94650.13;;;29.80;31.50
9855;BME280;4966;48.112;9.282;2023-09-19T14:00:19;94656.56;;;29.09;32.04
9855;BME280;4966;48.112;9.282;2023-09-19T14:02:45;94651.41;;;27.08;34.65
9855;BME280;4966;48.112;9.282;2023-09-19T14:05:12;94643.94;;;27.17;35.13
9855;BME280;4966;48.112;9.282;2023-09-19T14:07:40;94648.50;;;28.23;33.08
9855;BME280;4966;48.112;9.282;2023-09-19T14:10:06;94648.91;;;27.99;34.25
9855;BME280;4966;48.112;9.282;2023-09-19T14:12:36;94650.91;;;26.00;36.40
9855;BME280;4966;48.112;9.282;2023-09-19T14:15:02;94651.00;;;25.63;37.11
9855;BME280;4966;48.112;9.282;2023-09-19T14:17:28;94648.22;;;25.14;37.69